createdAt,value
2023-03-30T00:04:34.788Z,3.90
2023-03-30T00:09:33.689Z,3.86
2023-03-30T00:14:32.510Z,3.71
2023-03-30T00:19:32.802Z,3.67
2023-03-30T00:24:31.530Z,3.80
2023-03-30T00:29:30.262Z,3.86
2023-03-30T00:34:29.096Z,3.64
2023-03-30T00:39:29.304Z,3.56
2023-03-30T00:45:13.587Z,3.84
2023-03-30T00:50:13.825Z,3.77
2023-03-30T00:55:14.952Z,3.83
2023-03-30T01:00:15.078Z,3.91
2023-03-30T01:05:14.261Z,3.98
2023-03-30T01:10:14.728Z,4.03
2023-03-30T01:15:16.283Z,4.07
2023-03-30T01:20:47.589Z,4.08
2023-03-30T01:26:24.705Z,4.08
2023-03-30T01:31:50.232Z,4.06
2023-03-30T01:37:19.517Z,3.98
2023-03-30T01:42:23.809Z,3.71
2023-03-30T01:47:29.544Z,3.50
2023-03-30T01:52:37.096Z,3.41
2023-03-30T01:57:45.553Z,3.34
2023-03-30T02:02:49.669Z,3.42
2023-03-30T02:07:53.860Z,3.43
2023-03-30T02:12:57.171Z,3.38
2023-03-30T02:17:55.959Z,3.30
2023-03-30T02:22:55.459Z,3.31
2023-03-30T02:27:55.658Z,3.29
2023-03-30T02:32:57.092Z,3.27
2023-03-30T02:38:15.026Z,3.20
2023-03-30T02:43:35.152Z,3.14
2023-03-30T02:48:42.851Z,3.00
2023-03-30T02:53:47.249Z,2.97
2023-03-30T02:59:05.311Z,2.97
2023-03-30T03:04:06.344Z,2.96
2023-03-30T03:09:25.143Z,2.97
2023-03-30T03:14:26.641Z,2.95
2023-03-30T03:19:26.126Z,2.90
2023-03-30T03:24:25.455Z,2.85
2023-03-30T03:29:54.645Z,2.73
2023-03-30T03:34:53.827Z,2.73
2023-03-30T03:39:52.785Z,2.71
2023-03-30T03:44:51.932Z,2.66
2023-03-30T03:49:52.713Z,2.63
2023-03-30T03:54:51.743Z,2.64
2023-03-30T03:59:51.295Z,2.59
2023-03-30T04:04:50.402Z,2.55
2023-03-30T04:09:50.623Z,2.51
2023-03-30T04:15:11.800Z,2.48
2023-03-30T04:20:34.131Z,2.46
2023-03-30T04:25:48.232Z,2.50
2023-03-30T04:31:13.118Z,2.57
2023-03-30T04:36:31.122Z,2.61
2023-03-30T04:41:52.384Z,2.70
2023-03-30T04:47:17.431Z,2.74
2023-03-30T04:52:37.651Z,2.76
2023-03-30T04:57:49.619Z,2.82
2023-03-30T05:03:11.573Z,2.87
2023-03-30T05:08:29.772Z,2.90
2023-03-30T05:13:48.626Z,2.90
2023-03-30T05:19:02.498Z,2.89
2023-03-30T05:24:36.413Z,2.90
2023-03-30T05:29:56.608Z,2.80
2023-03-30T05:35:12.143Z,2.84
2023-03-30T05:40:29.769Z,2.71
2023-03-30T05:45:44.262Z,2.73
2023-03-30T05:51:02.565Z,2.83
2023-03-30T05:56:17.898Z,2.56
2023-03-30T06:01:28.609Z,2.80
2023-03-30T06:06:29.822Z,2.59
2023-03-30T06:11:29.000Z,2.66
2023-03-30T06:16:41.127Z,2.78
2023-03-30T06:21:42.975Z,2.93
2023-03-30T06:27:03.567Z,2.91
2023-03-30T06:32:05.006Z,3.07
2023-03-30T06:37:22.585Z,3.15
2023-03-30T06:42:22.674Z,3.29
2023-03-30T06:47:35.966Z,3.41
2023-03-30T06:52:36.399Z,3.55
2023-03-30T06:57:36.141Z,3.97
2023-03-30T07:02:36.857Z,4.13
2023-03-30T07:07:46.708Z,4.33
2023-03-30T07:12:45.722Z,4.49
2023-03-30T07:17:53.632Z,4.51
2023-03-30T07:22:53.150Z,4.56
2023-03-30T07:27:52.155Z,4.68
2023-03-30T07:32:53.185Z,4.95
2023-03-30T07:38:02.939Z,5.04
2023-03-30T07:43:07.008Z,5.35
2023-03-30T07:48:07.894Z,5.78
2023-03-30T07:53:07.463Z,5.93
2023-03-30T07:58:07.910Z,6.01
2023-03-30T08:03:08.600Z,6.32
2023-03-30T08:08:08.009Z,6.43
2023-03-30T08:13:08.072Z,6.67
2023-03-30T08:18:08.900Z,6.76
2023-03-30T08:23:09.354Z,7.06
2023-03-30T08:28:09.117Z,7.18
2023-03-30T08:33:10.218Z,7.56
2023-03-30T08:38:10.035Z,7.93
2023-03-30T08:43:23.147Z,7.97
2023-03-30T08:48:26.238Z,8.40
2023-03-30T08:53:25.097Z,8.90
2023-03-30T08:58:34.491Z,9.40
2023-03-30T09:03:40.894Z,10.41
2023-03-30T09:08:40.451Z,11.26
2023-03-30T09:13:42.361Z,11.97
2023-03-30T09:18:44.761Z,13.03
2023-03-30T09:23:46.545Z,13.70
2023-03-30T09:28:55.198Z,15.29
2023-03-30T09:34:03.632Z,15.38
2023-03-30T09:39:10.483Z,16.52
2023-03-30T09:44:20.605Z,17.04
2023-03-30T09:49:22.900Z,16.43
2023-03-30T09:54:25.105Z,15.72
2023-03-30T10:00:00.604Z,15.13
2023-03-30T10:05:05.619Z,16.63
2023-03-30T10:10:29.110Z,18.01
2023-03-30T10:15:46.541Z,18.57
2023-03-30T10:20:51.564Z,18.60
2023-03-30T10:25:52.301Z,19.37
2023-03-30T10:30:54.949Z,19.06
2023-03-30T10:36:00.750Z,19.04
2023-03-30T10:41:10.878Z,18.73
2023-03-30T10:46:20.202Z,19.02
2023-03-30T10:51:32.874Z,20.03
2023-03-30T10:56:36.408Z,20.01
2023-03-30T11:02:33.589Z,19.49
2023-03-30T11:08:36.076Z,20.06
2023-03-30T11:14:06.216Z,19.68
2023-03-30T11:19:11.492Z,19.17
2023-03-30T11:24:17.395Z,19.66
2023-03-30T11:29:29.299Z,20.84
2023-03-30T11:34:43.921Z,19.53
2023-03-30T11:40:13.773Z,20.68
2023-03-30T11:45:21.690Z,21.17
2023-03-30T11:50:32.318Z,21.17
2023-03-30T11:55:52.309Z,20.56
2023-03-30T12:07:56.687Z,21.26
2023-03-30T12:12:57.997Z,22.33
2023-03-30T12:18:04.826Z,22.24
2023-03-30T12:23:15.153Z,21.53
2023-03-30T12:28:17.583Z,21.50
2023-03-30T12:33:27.746Z,20.93
2023-03-30T12:38:30.179Z,20.87
2023-03-30T12:43:40.611Z,21.05
2023-03-30T12:48:50.413Z,21.46
2023-03-30T12:54:23.315Z,21.24
2023-03-30T12:59:57.088Z,21.19
2023-03-30T13:04:56.908Z,21.90
2023-03-30T13:09:59.820Z,22.79
2023-03-30T13:15:07.287Z,23.56
2023-03-30T13:20:29.961Z,21.30
2023-03-30T13:25:42.013Z,21.56
2023-03-30T13:30:50.400Z,21.49
2023-03-30T13:35:59.092Z,22.96
2023-03-30T13:41:10.861Z,22.52
2023-03-30T13:46:19.845Z,22.95
2023-03-30T13:51:22.209Z,22.16
2023-03-30T13:56:22.758Z,22.05
2023-03-30T14:01:25.778Z,21.37
2023-03-30T14:06:26.890Z,22.92
2023-03-30T14:11:34.645Z,23.29
2023-03-30T14:16:38.653Z,23.69
2023-03-30T14:21:47.501Z,23.14
2023-03-30T14:26:49.179Z,23.41
2023-03-30T14:32:06.597Z,23.51
2023-03-30T14:37:09.752Z,23.56
2023-03-30T14:42:16.361Z,22.95
2023-03-30T14:47:22.747Z,22.39
2023-03-30T14:52:24.072Z,22.00
2023-03-30T14:57:26.739Z,21.40
2023-03-30T15:02:30.136Z,22.11
2023-03-30T15:07:32.666Z,22.36
2023-03-30T15:12:35.652Z,22.10
2023-03-30T15:17:39.060Z,22.31
2023-03-30T15:22:40.243Z,22.16
2023-03-30T15:27:41.172Z,21.49
2023-03-30T15:32:42.372Z,20.98
2023-03-30T15:37:54.935Z,21.39
2023-03-30T15:43:12.985Z,21.61
2023-03-30T15:48:13.749Z,21.61
2023-03-30T15:53:19.412Z,21.08
2023-03-30T15:58:35.764Z,20.58
2023-03-30T16:03:41.611Z,20.89
2023-03-30T16:08:43.635Z,20.86
2023-03-30T16:13:45.770Z,21.02
2023-03-30T16:18:46.762Z,20.71
2023-03-30T16:23:49.328Z,20.49
2023-03-30T16:28:52.576Z,20.21
2023-03-30T16:33:54.673Z,19.80
2023-03-30T16:38:54.150Z,19.40
2023-03-30T16:43:53.361Z,19.09
2023-03-30T16:48:54.790Z,18.69
2023-03-30T16:53:53.819Z,18.26
2023-03-30T16:58:52.868Z,17.94
2023-03-30T17:04:09.790Z,17.60
2023-03-30T17:09:13.959Z,17.30
2023-03-30T17:14:13.310Z,17.01
2023-03-30T17:19:16.031Z,16.70
2023-03-30T17:24:50.277Z,16.39
2023-03-30T17:29:53.376Z,16.10
2023-03-30T17:34:53.716Z,15.55
2023-03-30T17:39:54.649Z,15.04
2023-03-30T17:45:02.670Z,14.67
2023-03-30T17:50:04.239Z,14.64
2023-03-30T17:55:03.709Z,14.54
2023-03-30T18:00:06.279Z,14.44
2023-03-30T18:05:10.123Z,14.35
2023-03-30T18:10:21.916Z,14.25
2023-03-30T18:15:25.565Z,14.16
2023-03-30T18:20:32.598Z,14.05
2023-03-30T18:25:32.983Z,13.93
2023-03-30T18:30:33.641Z,13.83
2023-03-30T18:35:35.835Z,13.63
2023-03-30T18:40:37.828Z,13.47
2023-03-30T18:45:38.897Z,13.37
2023-03-30T18:50:41.351Z,13.32
2023-03-30T18:55:42.358Z,13.19
2023-03-30T19:00:41.615Z,13.10
2023-03-30T19:05:43.334Z,13.10
2023-03-30T19:10:44.541Z,13.11
2023-03-30T19:15:45.275Z,13.10
2023-03-30T19:20:46.519Z,13.02
2023-03-30T19:25:46.479Z,12.99
2023-03-30T19:30:46.347Z,12.99
2023-03-30T19:35:47.221Z,12.96
2023-03-30T19:40:46.590Z,12.97
2023-03-30T19:45:45.526Z,12.97
2023-03-30T19:50:44.626Z,12.86
2023-03-30T19:55:46.190Z,12.64
2023-03-30T20:01:15.463Z,12.51
2023-03-30T20:06:12.949Z,12.52
2023-03-30T20:11:13.711Z,12.50
2023-03-30T20:16:14.356Z,12.49
2023-03-30T20:21:15.952Z,12.40
2023-03-30T20:26:19.367Z,12.39
2023-03-30T20:31:18.506Z,12.35
2023-03-30T20:36:17.481Z,12.32
2023-03-30T20:41:21.873Z,12.33
2023-03-30T20:46:22.761Z,12.28
2023-03-30T20:51:24.028Z,12.18
2023-03-30T20:56:28.027Z,11.96
2023-03-30T21:01:29.694Z,11.90
2023-03-30T21:06:30.634Z,11.86
2023-03-30T21:11:33.638Z,11.91
2023-03-30T21:16:32.978Z,11.95
2023-03-30T21:21:33.906Z,11.82
2023-03-30T21:26:34.499Z,11.84
2023-03-30T21:31:33.488Z,11.84
2023-03-30T21:36:32.492Z,11.85
2023-03-30T21:41:33.259Z,11.83
2023-03-30T21:46:33.551Z,11.80
2023-03-30T21:51:32.679Z,11.77
2023-03-30T21:56:32.460Z,11.75
2023-03-30T22:01:31.548Z,11.74
2023-03-30T22:06:32.427Z,11.73
2023-03-30T22:11:31.486Z,11.74
2023-03-30T22:16:33.325Z,11.73
2023-03-30T22:21:35.653Z,11.70
2023-03-30T22:26:35.858Z,11.62
2023-03-30T22:31:34.752Z,11.50
2023-03-30T22:36:34.960Z,11.29
2023-03-30T22:41:33.743Z,11.19
2023-03-30T22:46:32.679Z,11.09
2023-03-30T22:51:34.070Z,10.97
2023-03-30T22:56:35.096Z,10.90
2023-03-30T23:01:35.296Z,10.77
2023-03-30T23:06:36.468Z,10.68
2023-03-30T23:11:53.782Z,10.62
2023-03-30T23:17:00.863Z,10.54
2023-03-30T23:21:59.814Z,10.48
2023-03-30T23:27:01.052Z,10.46
2023-03-30T23:32:00.025Z,10.48
2023-03-30T23:37:02.346Z,10.47
2023-03-30T23:42:05.036Z,10.40
2023-03-30T23:47:03.880Z,10.43
2023-03-30T23:52:02.608Z,10.48
2023-03-30T23:57:01.916Z,10.49
